KOKM Airport Information

Runway Information
Runway 04 Length 4300 ft width 150 ft
Elevation 683 ft Threshold ft Heading 45
Runway 22 Length 4300 ft Width 150 ft
Elevation 692 ft Threshold ft Heading 225
Runway 18 Length 5150 ft width 100 ft
Elevation 720 ft Threshold ft Heading 179
Runway 36 Length 5150 ft Width 100 ft
Elevation 685 ft Threshold ft Heading 359
Airport Frequencies
Type A/D Name TULSA APP/ Frequency 119.85 MHZ
Type AWOS Name AWOS 3 Frequency 118.225 MHZ
Type UNIC Name CTAF/UNICO Frequency 123 MHZ
Airport Navaids
Airport Weather Information & NOTAM
ADDS - METARS form results

(1712 UTC 16 August 2022)
Data provider http://aviationweather.gov/metar/data/
 
METAR text: KOKM 161655Z AUTO 27005G08KT CLR 37/18 A2991 RMK AO2 T03670176 PWINO
Conditions at: KOKM (OKMULGEE , OK, US) observed 1655 UTC 16 August 2022
Temperature: 36.7°C (98°F)
Dewpoint: 17.6°C (64°F) [RH = 33%]
Pressure (altimeter): 29.91 inches Hg (1013.0 mb)
Winds: from the W (270 degrees) at 6 MPH (5 knots; 2.6 m/s)
gusting to 9 MPH (8 knots; 4.1 m/s)
Visibility: missing
Ceiling: at least 12,000 feet AGL
Clouds: sky clear below 12,000 feet AGL
Weather: automated observation with no human augmentation;
there may or may not be significant weather present at this time

METAR text: KOKM 161635Z AUTO 25008KT CLR 37/18 A2992 RMK AO2 T03680181 PWINO
Conditions at: KOKM (OKMULGEE , OK, US) observed 1635 UTC 16 August 2022
Temperature: 36.8°C (98°F)
Dewpoint: 18.1°C (65°F) [RH = 33%]
Pressure (altimeter): 29.92 inches Hg (1013.3 mb)
Winds: from the WSW (250 degrees) at 9 MPH (8 knots; 4.1 m/s)
Visibility: missing
Ceiling: at least 12,000 feet AGL
Clouds: sky clear below 12,000 feet AGL
Weather: automated observation with no human augmentation;
there may or may not be significant weather present at this time

METAR text: KOKM 161615Z AUTO 24005KT CLR 36/18 A2992 RMK AO2 LTG DSNT E T03610179 PWINO
Conditions at: KOKM (OKMULGEE , OK, US) observed 1615 UTC 16 August 2022
Temperature: 36.1°C (97°F)
Dewpoint: 17.9°C (64°F) [RH = 34%]
Pressure (altimeter): 29.92 inches Hg (1013.3 mb)
Winds: from the WSW (240 degrees) at 6 MPH (5 knots; 2.6 m/s)
Visibility: missing
Ceiling: at least 12,000 feet AGL
Clouds: sky clear below 12,000 feet AGL
Weather: automated observation with no human augmentation;
there may or may not be significant weather present at this time